Terminal Aerodrome Forecast
Issued by NWS

Home | Current Version | Previous Version | Text Only | Print | Product List | Glossary On
Versions: 1 2 3 4 5 6 7 8 9 10 11 12 13 14 15 16 17 18 19 20 21 22 23 24
000
FTUS43 KJKL 290539
TAFSJS
TAF
KSJS 290539Z 2906/3006 VRB03KT P6SM SCT120
     FM291800 23007G17KT P6SM -SHRA VCTS SCT025CB BKN080
     FM292200 27007KT P6SM VCSH SCT040 BKN100=

USA.gov is the U.S. government's official web portal to all federal, state and local government web resources and services.